Time;durP1;ratioP1;P1;durP2;ratioP2;P2;SDS_P1;SDS_P2;PMS_P1;PMS_P2;Temp;Humidity;BMP_temperature;BMP_pressure;BME280_temperature;BME280_humidity;BME280_pressure;Samples;Min_cycle;Max_cycle;Signal;HPM_P1;HPM_P2
2021/08/31 00:00:06;;;;;;;18.13;15.02;;;;;;;12.95;97.74;101477.16;676865;29;1460;-83
2021/08/31 00:00:26;;;;;;;18.85;16.05;;;;;;;12.98;97.53;101473.66;676973;29;1898;-83
2021/08/31 00:00:47;;;;;;;17.07;15.27;;;;;;;12.95;97.51;101478.03;678915;29;4419;-84
2021/08/31 00:01:07;;;;;;;16.73;14.93;;;;;;;12.95;97.44;101483.28;674256;29;1598;-83
2021/08/31 00:01:28;;;;;;;16.47;14.63;;;;;;;12.94;97.29;101471.06;674604;29;1760;-84
2021/08/31 00:01:48;;;;;;;17.00;14.50;;;;;;;12.93;97.34;101487.66;676409;29;1293;-84
2021/08/31 00:02:08;;;;;;;16.93;15.13;;;;;;;12.92;97.04;101485.06;675117;29;1289;-83
2021/08/31 00:02:29;;;;;;;18.47;15.57;;;;;;;12.94;97.26;101484.19;675761;29;4131;-83
2021/08/31 00:02:49;;;;;;;17.08;15.15;;;;;;;12.98;97.08;101478.91;674778;29;5394;-83
2021/08/31 00:03:09;;;;;;;16.80;15.00;;;;;;;12.95;96.67;101475.41;671166;29;2560;-82
2021/08/31 00:03:30;;;;;;;16.88;15.07;;;;;;;12.99;96.57;101475.38;674173;29;1328;-84
2021/08/31 00:03:50;;;;;;;16.00;14.13;;;;;;;13.00;96.28;101482.41;672932;29;4372;-84
2021/08/31 00:04:11;;;;;;;17.43;14.47;;;;;;;13.01;96.34;101478.91;676181;29;1530;-83
2021/08/31 00:04:31;;;;;;;16.77;14.83;;;;;;;12.97;96.19;101477.16;676705;29;1379;-83
2021/08/31 00:04:51;;;;;;;16.87;15.17;;;;;;;12.94;96.36;101478.94;679510;29;1119;-83
2021/08/31 00:05:13;;;;;;;17.05;15.10;;;;;;;12.97;96.07;101478.03;680546;28;1947;-84
2021/08/31 00:05:33;;;;;;;16.77;14.90;;;;;;;12.99;96.56;101483.25;678579;29;4419;-83
2021/08/31 00:05:53;;;;;;;17.52;15.30;;;;;;;12.97;96.63;101478.03;678874;29;1459;-83
2021/08/31 00:06:14;;;;;;;16.87;15.00;;;;;;;12.98;96.62;101484.16;678819;29;2039;-83
2021/08/31 00:06:34;;;;;;;16.13;14.43;;;;;;;13.01;96.34;101484.16;682648;29;1566;-84
2021/08/31 00:06:55;;;;;;;16.40;14.63;;;;;;;12.98;96.23;101487.66;682349;28;4524;-84
2021/08/31 00:07:15;;;;;;;18.30;14.95;;;;;;;12.95;96.72;101483.28;683068;28;1866;-84
2021/08/31 00:07:36;;;;;;;16.97;14.27;;;;;;;13.00;96.28;101482.41;682612;29;1131;-83
2021/08/31 00:07:56;;;;;;;15.63;14.02;;;;;;;12.94;96.08;101473.69;677647;29;2312;-83
2021/08/31 00:08:16;;;;;;;16.50;14.67;;;;;;;12.92;96.09;101488.53;677846;29;4149;-84
2021/08/31 00:08:37;;;;;;;18.33;15.35;;;;;;;12.89;96.56;101487.66;676291;29;2801;-83
2021/08/31 00:08:57;;;;;;;18.80;15.30;;;;;;;12.88;96.49;101485.94;678533;29;1883;-83
2021/08/31 00:09:19;;;;;;;18.30;15.60;;;;;;;12.90;97.04;101484.16;678858;29;1187;-83
2021/08/31 00:09:43;;;;;;;17.17;15.38;;;;;;;12.91;97.24;101493.78;676727;29;1336;-83
2021/08/31 00:10:05;;;;;;;17.13;15.30;;;;;;;12.88;96.89;101484.16;673028;29;4360;-83
2021/08/31 00:10:26;;;;;;;16.92;14.95;;;;;;;12.87;96.65;101479.78;669470;29;1317;-83
2021/08/31 00:10:46;;;;;;;17.08;15.25;;;;;;;12.85;96.79;101480.66;672440;29;1394;-83
2021/08/31 00:11:06;;;;;;;17.23;15.50;;;;;;;12.84;97.07;101487.66;671760;29;1687;-83
2021/08/31 00:11:27;;;;;;;17.50;15.70;;;;;;;12.87;97.02;101478.94;671674;29;2817;-83
2021/08/31 00:11:47;;;;;;;16.83;14.97;;;;;;;12.90;96.49;101477.19;673886;29;1214;-83
2021/08/31 00:12:09;;;;;;;17.17;14.23;;;;;;;12.91;96.45;101478.91;676662;29;1429;-83
2021/08/31 00:12:29;;;;;;;17.17;14.43;;;;;;;12.89;96.21;101483.31;675347;29;1447;-83
2021/08/31 00:12:49;;;;;;;18.77;14.85;;;;;;;12.86;96.29;101480.69;676302;29;4417;-83
2021/08/31 00:13:10;;;;;;;18.73;15.30;;;;;;;12.85;96.64;101488.53;676230;29;1396;-83
2021/08/31 00:13:30;;;;;;;17.97;15.23;;;;;;;12.81;97.09;101484.16;674059;29;1594;-83
2021/08/31 00:13:50;;;;;;;17.20;15.40;;;;;;;12.78;97.06;101478.06;671379;29;1272;-83
2021/08/31 00:14:12;;;;;;;18.27;16.37;;;;;;;12.75;97.31;101482.41;673409;29;1926;-83
2021/08/31 00:14:35;;;;;;;18.10;16.20;;;;;;;12.72;97.56;101480.69;676345;29;3747;-83
2021/08/31 00:14:56;;;;;;;17.40;15.63;;;;;;;12.73;97.69;101479.81;673516;29;1448;-84
2021/08/31 00:15:16;;;;;;;17.95;15.52;;;;;;;12.71;97.47;101488.53;673683;29;1966;-84
2021/08/31 00:15:37;;;;;;;16.60;14.80;;;;;;;12.74;97.31;101480.69;676899;29;1512;-83
2021/08/31 00:15:57;;;;;;;16.05;14.35;;;;;;;12.77;96.70;101483.31;678258;28;4336;-83
2021/08/31 00:16:18;;;;;;;16.20;14.33;;;;;;;12.79;96.71;101481.53;677044;29;1538;-84
2021/08/31 00:16:39;;;;;;;17.08;14.95;;;;;;;12.79;96.81;101478.91;678401;29;3258;-83
2021/08/31 00:16:59;;;;;;;17.05;14.82;;;;;;;12.75;97.28;101482.41;676430;29;1629;-83
2021/08/31 00:17:20;;;;;;;17.95;16.00;;;;;;;12.73;97.16;101485.06;672944;29;2889;-83
2021/08/31 00:17:40;;;;;;;18.13;15.17;;;;;;;12.77;97.08;101483.31;673628;29;1540;-83
2021/08/31 00:18:01;;;;;;;17.43;14.90;;;;;;;12.79;96.62;101481.53;676357;29;1315;-83
2021/08/31 00:18:21;;;;;;;16.27;14.68;;;;;;;12.76;96.58;101486.81;676736;29;928;-83
2021/08/31 00:18:43;;;;;;;16.75;14.88;;;;;;;12.75;96.94;101482.41;678766;29;1558;-83
2021/08/31 00:19:03;;;;;;;16.92;14.80;;;;;;;12.72;96.84;101478.06;677581;28;4332;-83
2021/08/31 00:19:23;;;;;;;17.23;14.97;;;;;;;12.72;96.95;101483.31;679110;29;1449;-84
2021/08/31 00:19:44;;;;;;;17.45;15.10;;;;;;;12.71;97.15;101478.94;676824;29;1508;-83
2021/08/31 00:20:07;;;;;;;17.05;14.75;;;;;;;12.76;96.92;101478.94;676186;29;3483;-83
2021/08/31 00:20:29;;;;;;;16.40;14.60;;;;;;;12.77;96.49;101486.78;675391;29;4001;-83
2021/08/31 00:20:49;;;;;;;16.40;14.65;;;;;;;12.75;96.84;101477.16;673756;29;1478;-84
2021/08/31 00:21:11;;;;;;;15.90;14.20;;;;;;;12.73;96.60;101489.44;675710;29;1751;-83
2021/08/31 00:21:31;;;;;;;16.38;14.68;;;;;;;12.73;96.68;101487.66;676229;29;1363;-83
2021/08/31 00:21:51;;;;;;;17.98;15.23;;;;;;;12.70;96.48;101498.19;675253;29;4351;-83
2021/08/31 00:22:12;;;;;;;17.17;14.37;;;;;;;12.70;96.20;101498.19;675976;29;1449;-83
2021/08/31 00:22:35;;;;;;;16.17;14.15;;;;;;;12.73;96.63;101486.81;675271;29;1459;-83
2021/08/31 00:22:55;;;;;;;15.77;13.98;;;;;;;12.71;96.48;101485.91;677272;29;1893;-83
2021/08/31 00:23:16;;;;;;;15.82;14.20;;;;;;;12.68;96.00;101493.78;679139;29;3454;-83
2021/08/31 00:23:37;;;;;;;15.48;13.88;;;;;;;12.64;96.42;101490.31;678693;29;1444;-83
2021/08/31 00:23:57;;;;;;;15.80;14.20;;;;;;;12.68;96.53;101494.69;676901;29;1435;-83
2021/08/31 00:24:17;;;;;;;15.50;13.90;;;;;;;12.74;96.19;101480.69;676071;29;1183;-83
2021/08/31 00:24:40;;;;;;;15.95;14.00;;;;;;;12.76;95.83;101485.03;673860;29;1777;-83
2021/08/31 00:25:02;;;;;;;17.00;14.68;;;;;;;12.73;96.34;101492.06;675672;29;4341;-82
2021/08/31 00:25:23;;;;;;;16.88;14.75;;;;;;;12.71;96.28;101493.78;675625;29;1531;-83
2021/08/31 00:25:43;;;;;;;15.37;13.77;;;;;;;12.73;95.86;101490.28;674887;29;1724;-82
2021/08/31 00:26:04;;;;;;;15.68;13.57;;;;;;;12.78;95.73;101493.78;676234;29;3537;-83
2021/08/31 00:26:24;;;;;;;15.67;13.47;;;;;;;12.80;95.63;101491.16;673567;29;4654;-83
2021/08/31 00:26:45;;;;;;;15.65;13.80;;;;;;;12.80;95.88;101488.53;678924;29;1819;-83
2021/08/31 00:27:05;;;;;;;14.77;13.27;;;;;;;12.83;95.20;101482.44;675491;29;1365;-83
2021/08/31 00:27:25;;;;;;;15.15;13.57;;;;;;;12.86;95.35;101495.53;678694;29;1165;-83
2021/08/31 00:27:46;;;;;;;15.77;14.13;;;;;;;12.83;94.91;101482.44;678571;29;4512;-82
2021/08/31 00:28:06;;;;;;;15.23;13.63;;;;;;;12.81;95.11;101486.78;682064;29;1645;-83
2021/08/31 00:28:26;;;;;;;15.75;14.05;;;;;;;12.81;95.31;101487.69;678261;29;1376;-83
2021/08/31 00:28:47;;;;;;;15.37;13.63;;;;;;;12.83;95.31;101487.69;676263;29;1209;-82
2021/08/31 00:29:07;;;;;;;15.03;13.20;;;;;;;12.80;95.18;101493.78;675717;29;4043;-83
2021/08/31 00:29:27;;;;;;;15.80;13.20;;;;;;;12.74;95.74;101492.06;676125;29;3928;-82
2021/08/31 00:29:48;;;;;;;16.63;13.77;;;;;;;12.70;95.51;101494.69;675922;29;1760;-83
2021/08/31 00:30:09;;;;;;;17.00;14.30;;;;;;;12.69;96.25;101492.94;678393;29;1908;-83
2021/08/31 00:30:29;;;;;;;15.93;13.90;;;;;;;12.70;96.24;101492.06;678660;28;1302;-82
2021/08/31 00:30:49;;;;;;;15.00;13.43;;;;;;;12.71;96.10;101491.16;679405;29;4381;-83
2021/08/31 00:31:10;;;;;;;15.57;13.90;;;;;;;12.71;96.17;101483.28;675483;29;1576;-83
2021/08/31 00:31:30;;;;;;;15.48;13.70;;;;;;;12.73;95.86;101486.81;676565;29;1479;-83
2021/08/31 00:31:50;;;;;;;15.13;13.30;;;;;;;12.76;95.80;101497.28;676304;29;1929;-83
2021/08/31 00:32:11;;;;;;;14.90;13.30;;;;;;;12.78;95.25;101492.94;676069;29;4112;-83
2021/08/31 00:32:31;;;;;;;14.67;13.03;;;;;;;12.81;95.11;101484.16;681374;29;1804;-83
2021/08/31 00:32:52;;;;;;;15.15;12.80;;;;;;;12.84;94.81;101486.81;678725;29;1557;-83
2021/08/31 00:33:12;;;;;;;14.60;12.87;;;;;;;12.80;94.75;101488.53;678852;29;1676;-83
2021/08/31 00:33:35;;;;;;;15.10;13.50;;;;;;;12.74;94.52;101493.81;682005;29;1338;-83
2021/08/31 00:33:55;;;;;;;15.60;13.70;;;;;;;12.69;95.33;101491.16;681280;28;4339;-83
2021/08/31 00:34:15;;;;;;;16.20;13.93;;;;;;;12.68;95.60;101492.06;679304;29;1126;-83
2021/08/31 00:34:36;;;;;;;15.68;13.95;;;;;;;12.64;96.11;101495.56;677948;29;1888;-83
2021/08/31 00:34:56;;;;;;;15.20;13.27;;;;;;;12.58;95.78;101495.53;676650;29;3722;-83
2021/08/31 00:35:16;;;;;;;16.95;13.65;;;;;;;12.51;96.19;101489.41;672733;29;4239;-82
2021/08/31 00:35:37;;;;;;;18.53;13.87;;;;;;;12.50;96.42;101492.03;677369;29;1313;-83
2021/08/31 00:35:58;;;;;;;15.83;14.00;;;;;;;12.54;96.03;101493.78;671756;29;1476;-83
2021/08/31 00:36:19;;;;;;;15.60;13.80;;;;;;;12.60;95.95;101493.81;671711;29;1709;-83
2021/08/31 00:36:39;;;;;;;15.63;13.73;;;;;;;12.65;95.88;101485.94;671131;29;1303;-83
2021/08/31 00:37:00;;;;;;;15.53;13.57;;;;;;;12.59;95.43;101490.28;670954;29;4390;-83
2021/08/31 00:37:20;;;;;;;15.47;13.20;;;;;;;12.54;95.75;101488.56;671834;29;1648;-83
2021/08/31 00:37:40;;;;;;;15.87;13.57;;;;;;;12.53;96.37;101490.31;675722;29;1183;-83
2021/08/31 00:38:01;;;;;;;16.53;14.27;;;;;;;12.51;96.60;101485.94;677667;29;2553;-83
2021/08/31 00:38:21;;;;;;;16.40;14.13;;;;;;;12.49;96.71;101492.91;677924;29;4444;-83
2021/08/31 00:38:41;;;;;;;15.70;14.00;;;;;;;12.48;96.76;101488.56;679771;29;1209;-82
2021/08/31 00:39:02;;;;;;;16.10;13.83;;;;;;;12.46;96.71;101485.94;677426;29;2757;-83
2021/08/31 00:39:23;;;;;;;15.88;13.73;;;;;;;12.43;97.00;101496.41;677118;29;1350;-83
2021/08/31 00:39:45;;;;;;;17.05;14.10;;;;;;;12.39;96.19;101495.56;676896;28;2066;-83
2021/08/31 00:40:07;;;;;;;15.95;13.88;;;;;;;12.41;96.43;101493.78;676835;29;4841;-83
2021/08/31 00:40:28;;;;;;;15.82;13.55;;;;;;;12.41;97.02;101492.94;677181;29;1685;-83
2021/08/31 00:40:49;;;;;;;15.80;14.00;;;;;;;12.41;96.73;101493.78;677865;29;1103;-83
2021/08/31 00:41:09;;;;;;;15.87;14.13;;;;;;;12.49;96.43;101495.53;673349;29;3580;-82
2021/08/31 00:41:29;;;;;;;15.77;13.20;;;;;;;12.54;96.16;101491.19;673773;29;1561;-82
2021/08/31 00:41:50;;;;;;;15.83;13.30;;;;;;;12.51;95.72;101504.28;675486;29;1867;-83
2021/08/31 00:42:10;;;;;;;15.63;13.90;;;;;;;12.45;95.62;101497.31;676848;29;1438;-82
2021/08/31 00:42:31;;;;;;;15.68;14.00;;;;;;;12.42;96.17;101494.69;677637;29;1768;-82
2021/08/31 00:42:51;;;;;;;15.30;13.70;;;;;;;12.42;96.31;101489.44;676530;29;5625;-83
2021/08/31 00:43:12;;;;;;;14.63;13.10;;;;;;;12.42;96.45;101489.44;674351;29;1351;-83
2021/08/31 00:43:51;;;;;;;15.50;13.67;;;;;;;12.38;96.08;101487.69;675127;29;1362;-82
2021/08/31 00:44:23;;;;;;;16.05;13.40;;;;;;;12.38;96.46;101488.56;674954;29;3780;-82
2021/08/31 00:44:43;;;;;;;15.55;13.77;;;;;;;12.43;96.59;101496.41;675257;29;1808;-83
2021/08/31 00:45:04;;;;;;;14.70;13.20;;;;;;;12.51;96.55;101483.31;680530;28;1517;-82
2021/08/31 00:45:24;;;;;;;14.63;13.13;;;;;;;12.56;96.04;101489.44;676696;28;1304;-82
2021/08/31 00:45:45;;;;;;;14.13;12.53;;;;;;;12.57;95.65;101494.69;674514;29;1731;-83
2021/08/31 00:46:06;;;;;;;14.98;12.93;;;;;;;12.60;95.40;101489.44;676598;29;6129;-82
2021/08/31 00:46:26;;;;;;;14.80;12.18;;;;;;;12.68;95.07;101491.16;676992;29;1537;-83
2021/08/31 00:46:48;;;;;;;13.87;12.37;;;;;;;12.72;94.67;101485.06;677041;29;3272;-83
2021/08/31 00:47:09;;;;;;;13.93;12.43;;;;;;;12.70;94.49;101484.19;677617;29;1299;-82
2021/08/31 00:47:29;;;;;;;14.13;12.70;;;;;;;12.63;94.26;101487.66;675736;29;1349;-82
2021/08/31 00:47:50;;;;;;;14.20;12.70;;;;;;;12.56;94.73;101485.06;675175;29;1564;-83
2021/08/31 00:48:10;;;;;;;15.63;12.60;;;;;;;12.57;94.81;101486.81;674582;29;1256;-82
2021/08/31 00:48:30;;;;;;;15.57;12.68;;;;;;;12.63;95.09;101487.66;674016;29;1026;-83
2021/08/31 00:48:51;;;;;;;13.93;12.53;;;;;;;12.68;94.87;101486.81;674181;29;4365;-82
2021/08/31 00:49:11;;;;;;;14.30;12.80;;;;;;;12.68;94.32;101491.16;676522;29;1135;-83
2021/08/31 00:49:32;;;;;;;15.10;13.02;;;;;;;12.62;94.75;101491.19;676075;29;1629;-83
2021/08/31 00:49:53;;;;;;;14.65;12.95;;;;;;;12.52;94.73;101491.19;678750;29;3763;-83
2021/08/31 00:50:15;;;;;;;14.47;12.50;;;;;;;12.51;94.92;101489.41;677733;29;3103;-82
2021/08/31 00:50:35;;;;;;;13.80;12.25;;;;;;;12.57;95.09;101485.94;679681;29;998;-82
2021/08/31 00:50:56;;;;;;;13.80;12.40;;;;;;;12.65;94.76;101488.56;679948;29;1103;-83
2021/08/31 00:51:19;;;;;;;14.20;12.80;;;;;;;12.60;94.86;101484.19;678091;29;1294;-82
2021/08/31 00:51:39;;;;;;;15.20;13.38;;;;;;;12.52;94.93;101490.31;679767;29;1345;-82
2021/08/31 00:52:00;;;;;;;15.47;12.80;;;;;;;12.47;95.18;101489.44;676799;29;4339;-82
2021/08/31 00:52:21;;;;;;;15.52;13.07;;;;;;;12.38;95.05;101493.78;678111;29;1628;-83
2021/08/31 00:52:42;;;;;;;14.07;12.57;;;;;;;12.35;95.35;101491.16;678968;29;1297;-82
2021/08/31 00:53:02;;;;;;;15.15;12.52;;;;;;;12.45;95.77;101494.69;678534;29;3674;-82
2021/08/31 00:53:23;;;;;;;14.38;12.65;;;;;;;12.53;95.53;101485.06;676883;29;1562;-83
2021/08/31 00:53:43;;;;;;;13.63;12.23;;;;;;;12.56;95.17;101492.94;681610;29;1762;-83
2021/08/31 00:54:06;;;;;;;14.40;12.85;;;;;;;12.53;94.67;101485.06;681556;29;1690;-83
2021/08/31 00:54:29;;;;;;;14.32;12.77;;;;;;;12.46;94.99;101491.19;676054;29;1759;-83
2021/08/31 00:54:49;;;;;;;14.18;12.65;;;;;;;12.46;94.99;101491.19;675587;29;4477;-83
2021/08/31 00:55:10;;;;;;;14.55;13.05;;;;;;;12.46;94.96;101501.69;673673;29;1298;-82
2021/08/31 00:55:31;;;;;;;14.10;12.60;;;;;;;12.50;95.05;101499.91;671034;29;1617;-83
2021/08/31 00:55:52;;;;;;;14.60;13.00;;;;;;;12.47;95.02;101492.91;675495;29;2455;-83
2021/08/31 00:56:12;;;;;;;14.63;13.13;;;;;;;12.48;95.25;101488.56;675650;29;1790;-82
2021/08/31 00:56:33;;;;;;;14.07;12.60;;;;;;;12.51;95.43;101499.91;676702;29;1600;-83
2021/08/31 00:56:55;;;;;;;15.93;13.07;;;;;;;12.48;95.43;101494.66;673899;29;1556;-82
2021/08/31 00:57:16;;;;;;;14.68;13.18;;;;;;;12.46;95.50;101495.53;677578;29;1248;-83
2021/08/31 00:57:41;;;;;;;14.88;13.35;;;;;;;12.43;95.64;101491.16;676146;29;1229;-83
2021/08/31 00:58:02;;;;;;;15.10;13.23;;;;;;;12.44;95.43;101495.53;680637;28;4317;-82
2021/08/31 00:58:22;;;;;;;14.73;13.13;;;;;;;12.42;95.25;101489.44;678677;29;1955;-82
2021/08/31 00:58:43;;;;;;;15.80;13.90;;;;;;;12.39;95.88;101489.41;674839;29;3592;-83
2021/08/31 00:59:03;;;;;;;16.90;14.43;;;;;;;12.36;96.06;101492.91;674989;29;2877;-81
2021/08/31 00:59:23;;;;;;;14.93;13.40;;;;;;;12.36;95.98;101494.66;672613;29;1966;-83
2021/08/31 00:59:44;;;;;;;17.00;13.30;;;;;;;12.34;96.17;101494.66;671466;29;1385;-82
2021/08/31 01:00:07;;;;;;;17.85;14.07;;;;;;;12.33;96.00;101498.16;672258;29;1249;-83
2021/08/31 01:00:28;;;;;;;15.32;13.32;;;;;;;12.26;96.36;101497.25;675002;29;1617;-82
2021/08/31 01:00:48;;;;;;;15.10;13.50;;;;;;;12.26;96.53;101494.63;673080;29;4373;-82
2021/08/31 01:01:10;;;;;;;14.87;13.27;;;;;;;12.31;96.19;101491.16;672094;29;1878;-83
2021/08/31 01:01:30;;;;;;;14.52;13.02;;;;;;;12.26;96.49;101499.88;669216;29;1399;-82
2021/08/31 01:01:53;;;;;;;15.23;13.60;;;;;;;12.20;96.53;101499.88;670104;29;4095;-82
2021/08/31 01:02:13;;;;;;;15.70;12.90;;;;;;;12.14;96.48;101494.63;675738;29;1591;-83
2021/08/31 01:02:33;;;;;;;14.40;12.90;;;;;;;12.11;96.40;101505.09;676190;29;1552;-83
2021/08/31 01:02:55;;;;;;;14.90;13.05;;;;;;;12.08;96.34;101505.09;678897;29;1919;-82
2021/08/31 01:03:15;;;;;;;15.32;13.55;;;;;;;12.06;96.62;101501.63;675745;29;1587;-82
2021/08/31 01:03:37;;;;;;;16.07;13.90;;;;;;;12.04;96.82;101496.34;673869;29;1353;-82
2021/08/31 01:03:58;;;;;;;17.27;13.57;;;;;;;12.08;97.32;101502.47;670783;29;4409;-82
2021/08/31 01:04:28;;;;;;;15.27;13.10;;;;;;;12.11;97.37;101493.75;676569;29;1286;-83
2021/08/31 01:04:49;;;;;;;16.48;14.23;;;;;;;12.09;97.62;101501.63;677932;29;4746;-82
2021/08/31 01:05:12;;;;;;;15.73;14.03;;;;;;;12.04;97.00;101498.97;678505;29;1614;-83
2021/08/31 01:05:32;;;;;;;17.55;14.20;;;;;;;12.01;96.88;101503.34;679367;29;1743;-84
2021/08/31 01:05:56;;;;;;;15.83;13.67;;;;;;;11.98;97.00;101505.97;675142;29;1264;-83
2021/08/31 01:06:17;;;;;;;15.32;13.20;;;;;;;11.96;97.16;101499.81;673842;29;1404;-83
2021/08/31 01:06:39;;;;;;;16.98;13.48;;;;;;;11.99;97.39;101499.81;672989;29;1740;-82
2021/08/31 01:07:02;;;;;;;16.92;13.38;;;;;;;12.05;97.66;101497.25;670335;29;4426;-83
2021/08/31 01:07:23;;;;;;;15.45;13.57;;;;;;;12.12;97.36;101499.00;667872;29;1170;-83
2021/08/31 01:07:43;;;;;;;15.65;13.20;;;;;;;12.14;97.05;101494.63;668154;29;4222;-83
2021/08/31 01:08:05;;;;;;;15.23;12.87;;;;;;;12.10;96.68;101498.09;668528;29;1747;-82
2021/08/31 01:08:27;;;;;;;15.32;13.30;;;;;;;12.11;96.37;101493.75;671865;29;1695;-82
2021/08/31 01:08:47;;;;;;;14.80;12.63;;;;;;;12.11;96.60;101499.84;675501;29;1391;-83
2021/08/31 01:09:09;;;;;;;14.10;12.60;;;;;;;12.12;96.49;101501.63;676666;29;1193;-83
2021/08/31 01:09:29;;;;;;;14.77;13.18;;;;;;;12.11;96.75;101507.72;677595;29;1364;-82
2021/08/31 01:09:50;;;;;;;15.00;13.40;;;;;;;12.08;96.66;101500.72;675551;29;4445;-83
2021/08/31 01:10:13;;;;;;;15.85;13.32;;;;;;;12.05;96.50;101502.47;675990;29;1635;-83
2021/08/31 01:10:33;;;;;;;16.73;13.38;;;;;;;12.01;96.74;101504.19;676027;29;3979;-83
2021/08/31 01:11:00;;;;;;;15.55;13.52;;;;;;;12.03;97.02;101501.59;678129;28;2553;-82
2021/08/31 01:11:20;;;;;;;14.95;13.20;;;;;;;12.03;96.83;101507.72;676032;29;1694;-83
2021/08/31 01:11:41;;;;;;;14.43;12.82;;;;;;;12.02;96.57;101505.97;677166;29;1327;-82
2021/08/31 01:12:01;;;;;;;15.73;14.03;;;;;;;11.98;96.98;101506.81;677033;29;904;-82
2021/08/31 01:12:22;;;;;;;15.90;13.98;;;;;;;11.99;97.35;101505.06;676482;29;1846;-83
2021/08/31 01:12:45;;;;;;;15.67;13.63;;;;;;;12.04;97.11;101505.97;677298;29;826;-82
2021/08/31 01:13:06;;;;;;;15.55;13.48;;;;;;;12.05;96.90;101505.09;678205;29;4226;-82
2021/08/31 01:13:32;;;;;;;15.43;12.90;;;;;;;12.16;97.09;101497.25;674523;29;1435;-82
2021/08/31 01:13:52;;;;;;;14.50;12.18;;;;;;;12.21;96.33;101501.66;678912;29;3032;-82
2021/08/31 01:14:13;;;;;;;13.97;12.37;;;;;;;12.23;95.51;101502.50;672772;29;1693;-83
2021/08/31 01:14:34;;;;;;;14.23;12.70;;;;;;;12.20;95.17;101513.00;675548;29;1225;-82
2021/08/31 01:14:56;;;;;;;14.05;12.38;;;;;;;12.21;95.79;101508.59;674057;29;1262;-82
2021/08/31 01:15:17;;;;;;;14.55;12.70;;;;;;;12.24;95.49;101511.25;676374;29;1589;-82
2021/08/31 01:15:38;;;;;;;16.48;13.25;;;;;;;12.20;95.46;101499.03;673553;29;1705;-82
2021/08/31 01:15:58;;;;;;;16.65;13.18;;;;;;;12.17;95.47;101507.75;675827;29;4490;-83
2021/08/31 01:16:18;;;;;;;14.70;12.97;;;;;;;12.16;95.64;101505.13;676977;29;1473;-82
2021/08/31 01:16:39;;;;;;;14.65;12.90;;;;;;;12.15;96.19;101506.00;676520;29;2677;-83
2021/08/31 01:17:00;;;;;;;13.98;12.38;;;;;;;12.17;96.04;101504.22;673679;29;2741;-82
2021/08/31 01:17:23;;;;;;;14.27;12.77;;;;;;;12.21;96.05;101506.88;668319;29;1544;-82
2021/08/31 01:17:43;;;;;;;13.68;12.27;;;;;;;12.23;95.74;101505.13;670647;29;1658;-82
2021/08/31 01:18:19;;;;;;;13.17;11.83;;;;;;;12.23;95.21;101505.13;671741;29;1142;-82
2021/08/31 01:18:39;;;;;;;14.00;12.00;;;;;;;12.17;95.72;101510.38;673008;29;1228;-82
2021/08/31 01:19:00;;;;;;;14.00;12.43;;;;;;;12.12;95.70;101501.63;675742;29;4340;-82
2021/08/31 01:19:28;;;;;;;14.75;13.00;;;;;;;12.10;96.21;101508.59;675608;29;2060;-82
2021/08/31 01:19:48;;;;;;;13.85;12.20;;;;;;;12.10;96.44;101503.34;679352;29;3829;-82
2021/08/31 01:20:09;;;;;;;13.63;12.23;;;;;;;12.13;96.38;101511.22;676062;29;1641;-82
2021/08/31 01:20:32;;;;;;;13.35;11.95;;;;;;;12.17;95.82;101504.22;673757;29;1458;-82
2021/08/31 01:20:56;;;;;;;12.93;11.38;;;;;;;12.23;95.68;101510.38;676539;29;1558;-82
2021/08/31 01:21:16;;;;;;;12.90;11.50;;;;;;;12.26;95.29;101514.75;678210;29;1534;-82
2021/08/31 01:21:37;;;;;;;13.07;11.53;;;;;;;12.31;95.25;101517.38;673487;29;1757;-82
2021/08/31 01:22:01;;;;;;;14.40;11.90;;;;;;;12.32;94.93;101504.25;670787;29;4334;-81
2021/08/31 01:22:21;;;;;;;13.13;11.70;;;;;;;12.40;94.91;101514.75;667272;29;977;-82
2021/08/31 01:22:42;;;;;;;13.30;11.60;;;;;;;12.42;94.74;101507.78;673318;29;3954;-82
2021/08/31 01:23:02;;;;;;;12.77;11.48;;;;;;;12.45;94.59;101515.66;675715;29;1962;-82
2021/08/31 01:23:25;;;;;;;13.13;11.27;;;;;;;12.46;94.36;101512.16;678677;29;1209;-82
2021/08/31 01:23:48;;;;;;;14.45;11.90;;;;;;;12.48;94.06;101514.78;681481;29;1744;-82
2021/08/31 01:24:11;;;;;;;13.70;11.27;;;;;;;12.51;93.98;101507.78;678842;29;1358;-82
2021/08/31 01:24:31;;;;;;;15.13;11.97;;;;;;;12.54;93.94;101505.16;681523;29;1727;-83
2021/08/31 01:25:01;;;;;;;14.57;11.85;;;;;;;12.57;94.08;101512.16;676941;29;4384;-82
2021/08/31 01:25:24;;;;;;;12.55;11.23;;;;;;;12.65;93.82;101506.91;677884;29;3902;-82
2021/08/31 01:25:45;;;;;;;13.77;11.73;;;;;;;12.69;93.37;101506.91;678632;29;4597;-83
2021/08/31 01:26:06;;;;;;;14.63;11.73;;;;;;;12.72;93.39;101511.28;676000;29;1615;-82
2021/08/31 01:26:27;;;;;;;13.00;11.30;;;;;;;12.76;92.79;101510.41;675608;29;2249;-82
2021/08/31 01:26:49;;;;;;;13.32;11.80;;;;;;;12.76;92.63;101510.41;671034;29;1768;-82
2021/08/31 01:27:10;;;;;;;14.73;12.23;;;;;;;12.71;92.51;101506.91;668409;29;1187;-82
2021/08/31 01:27:31;;;;;;;14.38;12.07;;;;;;;12.73;92.66;101516.53;669012;29;992;-82
2021/08/31 01:27:51;;;;;;;13.02;11.43;;;;;;;12.77;92.66;101517.41;673806;29;4742;-82
2021/08/31 01:28:20;;;;;;;13.23;11.50;;;;;;;12.74;92.81;101506.94;679426;29;1177;-82
2021/08/31 01:28:41;;;;;;;12.93;11.20;;;;;;;12.73;92.80;101511.28;679553;29;3843;-82
2021/08/31 01:29:03;;;;;;;14.35;11.48;;;;;;;12.70;92.58;101511.28;680325;29;2075;-82
2021/08/31 01:29:24;;;;;;;13.35;11.60;;;;;;;12.69;92.93;101511.28;678912;29;1731;-82
2021/08/31 01:29:45;;;;;;;13.35;11.70;;;;;;;12.70;92.77;101513.06;679662;29;1364;-82
2021/08/31 01:30:06;;;;;;;13.18;11.77;;;;;;;12.68;92.68;101512.16;677021;29;1384;-83
2021/08/31 01:30:26;;;;;;;13.25;11.30;;;;;;;12.69;92.50;101520.03;671959;29;2029;-82
2021/08/31 01:30:48;;;;;;;12.37;11.07;;;;;;;12.68;92.93;101513.06;671642;29;4403;-82
2021/08/31 01:31:09;;;;;;;12.90;11.50;;;;;;;12.62;92.51;101506.94;676115;29;1702;-81
2021/08/31 01:31:29;;;;;;;15.60;12.60;;;;;;;12.55;93.13;101517.41;678118;29;3674;-82
2021/08/31 01:31:50;;;;;;;16.08;12.90;;;;;;;12.50;93.47;101513.91;675405;29;1529;-82
2021/08/31 01:32:10;;;;;;;14.30;12.80;;;;;;;12.48;93.49;101515.66;678220;29;1444;-82
2021/08/31 01:32:30;;;;;;;14.32;12.52;;;;;;;12.49;93.47;101517.41;678474;29;869;-82
2021/08/31 01:32:51;;;;;;;14.67;12.97;;;;;;;12.49;93.68;101506.03;675247;29;2159;-82
2021/08/31 01:33:11;;;;;;;14.63;13.13;;;;;;;12.47;93.54;101516.50;678123;29;1217;-82
2021/08/31 01:33:34;;;;;;;14.05;12.63;;;;;;;12.50;93.53;101513.03;678440;29;1269;-82
2021/08/31 01:33:55;;;;;;;14.40;12.45;;;;;;;12.51;93.50;101510.41;678506;29;4713;-82
2021/08/31 01:34:16;;;;;;;15.93;12.68;;;;;;;12.53;93.67;101511.28;680313;29;3161;-82
2021/08/31 01:34:36;;;;;;;14.43;12.93;;;;;;;12.59;93.67;101513.03;676296;29;4381;-82
2021/08/31 01:34:56;;;;;;;14.27;12.77;;;;;;;12.64;93.52;101516.56;675703;29;1220;-82
2021/08/31 01:35:17;;;;;;;15.90;12.80;;;;;;;12.59;92.75;101511.28;673816;29;1967;-82
2021/08/31 01:35:37;;;;;;;14.43;12.73;;;;;;;12.58;92.76;101511.28;673640;29;1684;-82
2021/08/31 01:36:12;;;;;;;13.97;12.57;;;;;;;12.54;92.95;101515.63;673102;29;1073;-83
2021/08/31 01:36:32;;;;;;;15.10;12.88;;;;;;;12.49;93.33;101514.78;673587;29;1045;-82
2021/08/31 01:36:53;;;;;;;15.93;13.37;;;;;;;12.47;93.66;101510.41;675625;29;4504;-82
2021/08/31 01:37:14;;;;;;;15.88;12.70;;;;;;;12.49;93.46;101517.41;676233;29;3474;-82
2021/08/31 01:37:34;;;;;;;15.20;12.90;;;;;;;12.47;93.35;101518.28;680154;29;4402;-82
2021/08/31 01:37:54;;;;;;;14.30;12.80;;;;;;;12.42;93.81;101524.38;681711;29;1734;-82
2021/08/31 01:38:15;;;;;;;15.25;13.13;;;;;;;12.38;93.88;101524.41;681292;29;1371;-82
2021/08/31 01:38:35;;;;;;;15.00;13.40;;;;;;;12.38;94.15;101521.78;677646;29;1250;-82